CYMX/YMX METAR and TAF weather

Enter ICAO airport designator
Station Type Date Time Source
CYMX METAR 2020/06/05 10:00 UTC NOAA

CYMX 051000Z 00000KT 30SM FEW075 SCT230 12/10 A2980 RMK AC1CI2 SLP094


Station Type Date Time Source
CYMX Decoded METAR 2020/06/05 10:00 UTC NOAA

Montreal / Mirabel, Canada (CYMX) 45-41N 074-02W
Jun 05, 2020 - 06:00 AM EDT / 2020.06.05 1000 UTC
Wind: Calm:0
Visibility: 30 mile(s):0
Sky conditions: partly cloudy
Temperature: 53 F (12 C)
Dew Point: 50 F (10 C)
Relative Humidity: 87%
Pressure (altimeter): 29.8 in. Hg (1009 hPa)
ob: CYMX 051000Z 00000KT 30SM FEW075 SCT230 12/10 A2980 RMK AC1CI2 SLP094
cycle: 10

Station Type Date Time Source
CYMX TAF 2020/06/05 06:42 UTC NOAA

TAF CYMX 050538Z 0506/0606 VRB03KT P6SM SCT060
TEMPO 0506/0511 BKN060
FM051100 24007KT P6SM FEW200
BECMG 0513/0515 25012KT
FM060000 27012KT P6SM SCT100 BKN170
FM060200 27012KT P6SM -SHRA BKN060 PROB30 0602/0606 VRB15G25KT 2SM TSRA BKN015 OVC050CB
RMK NXT FCST BY 051200Z

Example: see airport list